createdAt,value
2022-10-01T00:02:07.434Z,8.23
2022-10-01T00:04:37.109Z,8.19
2022-10-01T00:07:07.617Z,8.14
2022-10-01T00:09:34.799Z,8.10
2022-10-01T00:12:02.165Z,8.05
2022-10-01T00:14:29.982Z,8.01
2022-10-01T00:16:58.144Z,7.97
2022-10-01T00:19:25.319Z,7.94
2022-10-01T00:21:52.449Z,7.92
2022-10-01T00:24:19.616Z,7.89
2022-10-01T00:26:47.675Z,7.86
2022-10-01T00:29:16.055Z,7.84
2022-10-01T00:31:43.474Z,7.81
2022-10-01T00:34:12.417Z,7.78
2022-10-01T00:36:39.859Z,7.74
2022-10-01T00:39:06.921Z,7.72
2022-10-01T00:41:35.325Z,7.69
2022-10-01T00:44:25.360Z,7.67
2022-10-01T00:46:53.240Z,7.65
2022-10-01T00:49:22.454Z,7.64
2022-10-01T00:51:53.479Z,7.62
2022-10-01T00:54:24.532Z,7.59
2022-10-01T00:56:54.424Z,7.57
2022-10-01T00:59:21.710Z,7.54
2022-10-01T01:01:49.350Z,7.51
2022-10-01T01:04:16.979Z,7.48
2022-10-01T01:06:48.092Z,7.45
2022-10-01T01:09:15.297Z,7.42
2022-10-01T01:11:48.543Z,7.40
2022-10-01T01:14:27.693Z,7.38
2022-10-01T01:17:09.006Z,7.36
2022-10-01T01:19:59.136Z,7.32
2022-10-01T01:22:27.294Z,7.30
2022-10-01T01:25:06.664Z,7.27
2022-10-01T01:27:38.664Z,7.24
2022-10-01T01:30:09.538Z,7.20
2022-10-01T01:32:39.535Z,7.18
2022-10-01T01:35:09.302Z,7.14
2022-10-01T01:37:42.364Z,7.11
2022-10-01T01:40:11.752Z,7.07
2022-10-01T01:42:42.036Z,7.04
2022-10-01T01:45:14.025Z,7.02
2022-10-01T01:47:42.464Z,6.99
2022-10-01T01:50:11.289Z,6.94
2022-10-01T01:52:38.937Z,6.89
2022-10-01T01:55:08.877Z,6.86
2022-10-01T01:57:44.071Z,6.83
2022-10-01T02:00:13.103Z,6.80
2022-10-01T02:02:41.832Z,6.76
2022-10-01T02:05:11.659Z,6.72
2022-10-01T02:08:22.544Z,6.67
2022-10-01T02:10:54.366Z,6.60
2022-10-01T02:13:43.869Z,6.59
2022-10-01T02:16:11.519Z,6.61
2022-10-01T02:18:48.540Z,6.64
2022-10-01T02:21:44.679Z,6.67
2022-10-01T02:24:31.520Z,6.71
2022-10-01T02:27:01.475Z,6.72
2022-10-01T02:29:29.855Z,6.73
2022-10-01T02:31:57.935Z,6.74
2022-10-01T02:34:29.672Z,6.74
2022-10-01T02:36:59.995Z,6.74
2022-10-01T02:39:28.260Z,6.74
2022-10-01T02:41:56.545Z,6.74
2022-10-01T02:44:40.596Z,6.74
2022-10-01T02:47:38.114Z,6.75
2022-10-01T02:50:09.855Z,6.75
2022-10-01T02:52:44.537Z,6.75
2022-10-01T02:55:20.554Z,6.75
2022-10-01T02:57:47.950Z,6.75
2022-10-01T03:00:17.676Z,6.75
2022-10-01T03:02:44.873Z,6.75
2022-10-01T03:05:12.157Z,6.73
2022-10-01T03:07:41.376Z,6.70
2022-10-01T03:10:09.962Z,6.66
2022-10-01T03:12:37.293Z,6.62
2022-10-01T03:15:05.395Z,6.58
2022-10-01T03:17:32.535Z,6.55
2022-10-01T03:19:59.872Z,6.50
2022-10-01T03:22:27.437Z,6.46
2022-10-01T03:24:54.592Z,6.39
2022-10-01T03:27:22.645Z,6.34
2022-10-01T03:29:50.424Z,6.31
2022-10-01T03:32:18.175Z,6.27
2022-10-01T03:34:45.534Z,6.24
2022-10-01T03:37:12.992Z,6.22
2022-10-01T03:39:40.151Z,6.19
2022-10-01T03:42:07.590Z,6.16
2022-10-01T03:44:35.055Z,6.13
2022-10-01T03:47:02.309Z,6.11
2022-10-01T03:49:29.875Z,6.08
2022-10-01T03:51:57.533Z,6.06
2022-10-01T03:54:26.013Z,6.04
2022-10-01T03:56:53.235Z,6.01
2022-10-01T03:59:21.236Z,5.99
2022-10-01T04:01:49.730Z,5.97
2022-10-01T04:04:16.977Z,5.96
2022-10-01T04:06:44.362Z,5.94
2022-10-01T04:09:11.576Z,5.91
2022-10-01T04:11:39.964Z,5.87
2022-10-01T04:14:07.188Z,5.81
2022-10-01T04:16:36.673Z,5.75
2022-10-01T04:19:04.880Z,5.68
2022-10-01T04:21:32.514Z,5.64
2022-10-01T04:24:00.491Z,5.60
2022-10-01T04:26:27.656Z,5.57
2022-10-01T04:28:54.916Z,5.55
2022-10-01T04:31:24.786Z,5.53
2022-10-01T04:33:56.944Z,5.52
2022-10-01T04:36:25.034Z,5.51
2022-10-01T04:39:00.864Z,5.47
2022-10-01T04:41:31.299Z,5.44
2022-10-01T04:44:00.399Z,5.42
2022-10-01T04:46:30.638Z,5.42
2022-10-01T04:48:58.200Z,5.42
2022-10-01T04:51:25.380Z,5.43
2022-10-01T04:53:52.589Z,5.42
2022-10-01T04:56:19.714Z,5.41
2022-10-01T04:58:46.833Z,5.40
2022-10-01T05:01:14.133Z,5.38
2022-10-01T05:03:41.720Z,5.38
2022-10-01T05:06:08.882Z,5.37
2022-10-01T05:08:37.340Z,5.38
2022-10-01T05:11:04.455Z,5.38
2022-10-01T05:13:32.147Z,5.39
2022-10-01T05:15:59.662Z,5.40
2022-10-01T05:18:27.151Z,5.40
2022-10-01T05:20:54.207Z,5.39
2022-10-01T05:23:21.333Z,5.38
2022-10-01T05:25:48.428Z,5.39
2022-10-01T05:28:21.400Z,5.42
2022-10-01T05:30:49.417Z,5.46
2022-10-01T05:33:16.534Z,5.49
2022-10-01T05:35:44.809Z,5.53
2022-10-01T05:38:11.965Z,5.56
2022-10-01T05:40:39.122Z,5.59
2022-10-01T05:43:06.346Z,5.65
2022-10-01T05:45:34.096Z,5.72
2022-10-01T05:48:03.313Z,5.81
2022-10-01T05:50:32.809Z,5.90
2022-10-01T05:53:01.196Z,5.99
2022-10-01T05:55:33.662Z,6.07
2022-10-01T05:58:02.852Z,6.15
2022-10-01T06:00:30.852Z,6.25
2022-10-01T06:02:59.375Z,6.35
2022-10-01T06:05:28.012Z,6.46
2022-10-01T06:07:55.549Z,6.58
2022-10-01T06:10:23.760Z,6.71
2022-10-01T06:12:51.672Z,6.84
2022-10-01T06:15:19.658Z,6.91
2022-10-01T06:17:47.183Z,6.94
2022-10-01T06:20:19.443Z,7.01
2022-10-01T06:22:54.533Z,7.10
2022-10-01T06:25:21.894Z,7.20
2022-10-01T06:27:58.376Z,7.30
2022-10-01T06:30:32.178Z,7.40
2022-10-01T06:33:07.828Z,7.49
2022-10-01T06:35:36.061Z,7.58
2022-10-01T06:38:03.730Z,7.65
2022-10-01T06:40:31.535Z,7.73
2022-10-01T06:42:59.496Z,7.82
2022-10-01T06:45:28.323Z,7.91
2022-10-01T06:47:57.013Z,8.02
2022-10-01T06:50:24.971Z,8.12
2022-10-01T06:52:54.946Z,8.21
2022-10-01T06:55:25.993Z,8.31
2022-10-01T06:57:59.417Z,8.42
2022-10-01T07:00:32.015Z,8.53
2022-10-01T07:02:59.948Z,8.64
2022-10-01T07:05:27.796Z,8.75
2022-10-01T07:07:55.563Z,8.88
2022-10-01T07:10:24.237Z,9.00
2022-10-01T07:12:51.591Z,9.11
2022-10-01T07:15:21.949Z,9.23
2022-10-01T07:17:50.863Z,9.37
2022-10-01T07:20:20.475Z,9.50
2022-10-01T07:22:48.779Z,9.64
2022-10-01T07:25:16.557Z,9.77
2022-10-01T07:27:43.796Z,9.90
2022-10-01T07:30:11.772Z,10.03
2022-10-01T07:32:38.940Z,10.16
2022-10-01T07:35:07.318Z,10.29
2022-10-01T07:37:35.256Z,10.41
2022-10-01T07:40:07.351Z,10.52
2022-10-01T07:42:36.006Z,10.62
2022-10-01T07:45:06.905Z,10.72
2022-10-01T07:47:46.715Z,10.79
2022-10-01T07:50:14.389Z,10.87
2022-10-01T07:52:41.519Z,10.97
2022-10-01T07:55:11.488Z,11.06
2022-10-01T07:57:39.642Z,11.15
2022-10-01T08:00:07.710Z,11.26
2022-10-01T08:02:39.708Z,11.35
2022-10-01T08:05:20.721Z,11.43
2022-10-01T08:07:51.906Z,11.53
2022-10-01T08:10:23.601Z,11.63
2022-10-01T08:13:10.869Z,11.69
2022-10-01T08:15:38.068Z,11.74
2022-10-01T08:18:05.929Z,11.79
2022-10-01T08:20:33.265Z,11.86
2022-10-01T08:23:10.222Z,11.92
2022-10-01T08:25:42.891Z,11.98
2022-10-01T08:28:11.544Z,12.03
2022-10-01T08:30:40.785Z,12.06
2022-10-01T08:33:13.188Z,12.09
2022-10-01T08:35:42.515Z,12.11
2022-10-01T08:38:11.311Z,12.14
2022-10-01T08:40:47.599Z,12.20
2022-10-01T08:43:34.540Z,12.29
2022-10-01T08:46:04.497Z,12.40
2022-10-01T08:48:40.997Z,12.50
2022-10-01T08:51:36.532Z,12.60
2022-10-01T08:54:42.998Z,12.75
2022-10-01T08:57:32.539Z,12.90
2022-10-01T09:00:01.871Z,13.01
2022-10-01T09:02:38.988Z,13.07
2022-10-01T09:05:21.190Z,13.13
2022-10-01T09:08:06.695Z,13.18
2022-10-01T09:10:59.014Z,13.25
2022-10-01T09:13:54.856Z,13.39
2022-10-01T09:16:36.655Z,13.54
2022-10-01T09:19:34.298Z,13.69
2022-10-01T09:22:17.014Z,13.84
2022-10-01T09:24:47.376Z,13.98
2022-10-01T09:27:18.075Z,14.12
2022-10-01T09:30:05.076Z,14.27
2022-10-01T09:32:36.185Z,14.42
2022-10-01T09:35:25.677Z,14.55
2022-10-01T09:37:58.779Z,14.67
2022-10-01T09:40:38.898Z,14.77
2022-10-01T09:43:09.244Z,14.88
2022-10-01T09:45:38.127Z,14.97
2022-10-01T09:48:20.677Z,15.05
2022-10-01T09:50:56.439Z,15.13
2022-10-01T09:53:37.792Z,15.23
2022-10-01T09:56:10.955Z,15.32
2022-10-01T09:58:40.589Z,15.41
2022-10-01T10:01:39.293Z,15.51
2022-10-01T10:04:06.534Z,15.63
2022-10-01T10:06:34.213Z,15.73
2022-10-01T10:09:02.578Z,15.83
2022-10-01T10:11:31.839Z,15.93
2022-10-01T10:14:01.800Z,16.01
2022-10-01T10:16:35.528Z,16.09
2022-10-01T10:19:25.106Z,16.17
2022-10-01T10:21:55.007Z,16.25
2022-10-01T10:24:28.025Z,16.34
2022-10-01T10:26:58.895Z,16.40
2022-10-01T10:29:37.379Z,16.49
2022-10-01T10:32:28.126Z,16.57
2022-10-01T10:35:02.746Z,16.64
2022-10-01T10:37:33.298Z,16.72
2022-10-01T10:40:01.160Z,16.80
2022-10-01T10:42:30.255Z,16.88
2022-10-01T10:45:03.658Z,16.99
2022-10-01T10:47:33.669Z,17.12
2022-10-01T10:50:06.755Z,17.25
2022-10-01T10:52:36.717Z,17.38
2022-10-01T10:55:25.659Z,17.49
2022-10-01T10:57:57.487Z,17.61
2022-10-01T11:00:27.077Z,17.71
2022-10-01T11:03:04.433Z,17.80
2022-10-01T11:05:33.384Z,17.85
2022-10-01T11:08:04.311Z,17.88
2022-10-01T11:10:47.036Z,17.90
2022-10-01T11:13:17.986Z,17.89
2022-10-01T11:16:10.644Z,17.84
2022-10-01T11:19:06.035Z,17.72
2022-10-01T11:21:42.016Z,17.61
2022-10-01T11:24:43.016Z,17.54
2022-10-01T11:27:36.604Z,17.47
2022-10-01T11:30:25.542Z,17.38
2022-10-01T11:33:23.714Z,17.26
2022-10-01T11:36:25.285Z,17.16
2022-10-01T11:39:03.215Z,17.01
2022-10-01T11:41:31.257Z,16.94
2022-10-01T11:44:30.479Z,16.91
2022-10-01T11:47:11.014Z,16.92
2022-10-01T11:49:49.026Z,16.96
2022-10-01T11:52:16.186Z,16.98
2022-10-01T11:54:56.318Z,16.99
2022-10-01T11:57:42.736Z,17.00
2022-10-01T12:00:11.801Z,17.02
2022-10-01T12:02:51.256Z,17.04
2022-10-01T12:05:30.133Z,17.06
2022-10-01T12:07:57.438Z,17.07
2022-10-01T12:10:43.516Z,17.04
2022-10-01T12:13:23.075Z,17.01
2022-10-01T12:15:58.402Z,16.98
2022-10-01T12:18:32.201Z,16.97
2022-10-01T12:21:01.985Z,16.96
2022-10-01T12:23:32.826Z,16.95
2022-10-01T12:26:41.573Z,16.96
2022-10-01T12:29:13.655Z,17.00
2022-10-01T12:31:47.135Z,17.00
2022-10-01T12:34:22.916Z,16.99
2022-10-01T12:36:59.247Z,16.97
2022-10-01T12:39:32.447Z,16.92
2022-10-01T12:42:18.658Z,16.90
2022-10-01T12:45:04.536Z,16.87
2022-10-01T12:48:00.351Z,16.85
2022-10-01T12:50:40.916Z,16.83
2022-10-01T12:53:31.215Z,16.82
2022-10-01T12:56:10.034Z,16.78
2022-10-01T12:59:06.875Z,16.77
2022-10-01T13:05:13.473Z,16.80
2022-10-01T13:07:58.748Z,16.80
2022-10-01T13:11:02.776Z,16.81
2022-10-01T13:13:35.060Z,16.81
2022-10-01T13:16:13.536Z,16.80
2022-10-01T13:19:03.521Z,16.80
2022-10-01T13:21:57.906Z,16.78
2022-10-01T13:24:40.319Z,16.75
2022-10-01T13:27:14.026Z,16.70
2022-10-01T13:30:18.839Z,16.67
2022-10-01T13:32:54.020Z,16.67
2022-10-01T13:35:21.681Z,16.66
2022-10-01T13:37:48.800Z,16.63
2022-10-01T13:40:34.295Z,16.63
2022-10-01T13:43:20.378Z,16.60
2022-10-01T13:45:50.403Z,16.55
2022-10-01T13:48:20.764Z,16.50
2022-10-01T13:51:05.596Z,16.42
2022-10-01T13:53:48.029Z,16.34
2022-10-01T13:56:28.750Z,16.28
2022-10-01T13:58:56.416Z,16.21
2022-10-01T14:01:24.452Z,16.16
2022-10-01T14:04:19.397Z,16.11
2022-10-01T14:06:59.467Z,16.03
2022-10-01T14:09:32.929Z,15.97
2022-10-01T14:12:27.953Z,15.93
2022-10-01T14:15:18.555Z,15.84
2022-10-01T14:17:48.075Z,15.75
2022-10-01T14:20:24.586Z,15.65
2022-10-01T14:23:06.733Z,15.57
2022-10-01T14:25:44.826Z,15.51
2022-10-01T14:28:47.102Z,15.45
2022-10-01T14:31:20.217Z,15.39
2022-10-01T14:34:04.236Z,15.32
2022-10-01T14:36:37.800Z,15.26
2022-10-01T14:39:14.096Z,15.22
2022-10-01T14:41:41.963Z,15.18
2022-10-01T14:44:30.114Z,15.12
2022-10-01T14:46:59.415Z,15.06
2022-10-01T14:49:31.505Z,14.99
2022-10-01T14:52:07.293Z,14.88
2022-10-01T14:54:54.809Z,14.71
2022-10-01T14:57:34.285Z,14.37
2022-10-01T15:00:07.909Z,13.99
2022-10-01T15:02:35.344Z,13.68
2022-10-01T15:05:02.766Z,13.40
2022-10-01T15:07:37.389Z,13.19
2022-10-01T15:10:08.740Z,13.05
2022-10-01T15:12:41.503Z,12.97
2022-10-01T15:15:32.368Z,12.91
2022-10-01T15:17:59.815Z,12.88
2022-10-01T15:20:27.804Z,12.87
2022-10-01T15:23:01.070Z,12.87
2022-10-01T15:25:30.189Z,12.88
2022-10-01T15:27:57.663Z,12.89
2022-10-01T15:30:27.794Z,12.87
2022-10-01T15:32:55.311Z,12.82
2022-10-01T15:35:23.275Z,12.76
2022-10-01T15:37:52.014Z,12.69
2022-10-01T15:40:28.731Z,12.58
2022-10-01T15:43:08.075Z,12.45
2022-10-01T15:45:36.156Z,12.31
2022-10-01T15:48:03.715Z,12.19
2022-10-01T15:50:39.154Z,12.09
2022-10-01T15:53:11.057Z,12.01
2022-10-01T15:55:53.510Z,11.92
2022-10-01T15:58:35.618Z,11.83
2022-10-01T16:01:06.114Z,11.75
2022-10-01T16:03:53.158Z,11.68
2022-10-01T16:06:28.267Z,11.63
2022-10-01T16:09:19.251Z,11.57
2022-10-01T16:12:00.125Z,11.51
2022-10-01T16:14:37.810Z,11.45
2022-10-01T16:17:18.449Z,11.38
2022-10-01T16:19:50.078Z,11.32
2022-10-01T16:22:27.481Z,11.28
2022-10-01T16:25:01.290Z,11.23
2022-10-01T16:27:56.952Z,11.19
2022-10-01T16:30:29.935Z,11.16
2022-10-01T16:33:03.175Z,11.15
2022-10-01T16:35:46.105Z,11.13
2022-10-01T16:38:13.788Z,11.10
2022-10-01T16:40:50.833Z,11.08
2022-10-01T16:43:24.510Z,11.07
2022-10-01T16:45:52.647Z,11.06
2022-10-01T16:48:25.866Z,11.05
2022-10-01T16:50:55.329Z,11.02
2022-10-01T16:53:32.444Z,11.00
2022-10-01T16:56:03.133Z,10.99
2022-10-01T16:58:39.344Z,10.97
2022-10-01T17:01:10.790Z,10.96
2022-10-01T17:03:41.275Z,10.95
2022-10-01T17:06:11.208Z,10.94
2022-10-01T17:08:38.797Z,10.95
2022-10-01T17:11:09.494Z,10.96
2022-10-01T17:13:39.292Z,10.97
2022-10-01T17:16:07.048Z,10.97
2022-10-01T17:18:34.413Z,10.96
2022-10-01T17:21:05.985Z,10.96
2022-10-01T17:23:35.736Z,10.94
2022-10-01T17:26:06.655Z,10.92
2022-10-01T17:28:33.987Z,10.90
2022-10-01T17:31:06.924Z,10.89
2022-10-01T17:33:34.520Z,10.88
2022-10-01T17:36:16.992Z,10.87
2022-10-01T17:38:47.025Z,10.86
2022-10-01T17:41:14.285Z,10.85
2022-10-01T17:43:42.425Z,10.84
2022-10-01T17:46:09.865Z,10.83
2022-10-01T17:48:37.069Z,10.82
2022-10-01T17:51:07.826Z,10.82
2022-10-01T17:53:42.197Z,10.79
2022-10-01T17:56:14.981Z,10.80
2022-10-01T17:58:45.360Z,10.80
2022-10-01T18:01:23.079Z,10.79
2022-10-01T18:03:55.839Z,10.78
2022-10-01T18:06:24.373Z,10.77
2022-10-01T18:08:55.585Z,10.77
2022-10-01T18:11:26.092Z,10.76
2022-10-01T18:13:53.823Z,10.76
2022-10-01T18:16:25.586Z,10.76
2022-10-01T18:22:00.562Z,10.76
2022-10-01T18:24:36.963Z,10.77
2022-10-01T18:27:13.782Z,10.79
2022-10-01T18:29:50.072Z,10.79
2022-10-01T18:32:28.946Z,10.81
2022-10-01T18:35:10.129Z,10.82
2022-10-01T18:38:04.872Z,10.82
2022-10-01T18:41:17.151Z,10.81
2022-10-01T18:44:04.075Z,10.81
2022-10-01T18:46:56.357Z,10.81
2022-10-01T18:50:20.692Z,10.81
2022-10-01T18:53:12.269Z,10.81
2022-10-01T18:56:14.936Z,10.80
2022-10-01T18:58:48.741Z,10.78
2022-10-01T19:01:42.961Z,10.77
2022-10-01T19:04:30.880Z,10.76
2022-10-01T19:07:04.596Z,10.75
2022-10-01T19:09:40.397Z,10.75
2022-10-01T19:12:44.910Z,10.76
2022-10-01T19:15:15.237Z,10.75
2022-10-01T19:18:09.633Z,10.75
2022-10-01T19:20:53.603Z,10.76
2022-10-01T19:23:43.435Z,10.76
2022-10-01T19:26:23.104Z,10.76
2022-10-01T19:29:06.174Z,10.76
2022-10-01T19:31:38.855Z,10.77
2022-10-01T19:34:11.561Z,10.77
2022-10-01T19:36:46.956Z,10.77
2022-10-01T19:39:23.271Z,10.77
2022-10-01T19:41:59.654Z,10.77
2022-10-01T19:44:36.872Z,10.78
2022-10-01T19:47:41.988Z,10.79
2022-10-01T19:50:34.679Z,10.81
2022-10-01T19:53:04.009Z,10.83
2022-10-01T19:55:38.710Z,10.85
2022-10-01T19:58:15.044Z,10.85
2022-10-01T20:00:43.907Z,10.86
2022-10-01T20:03:19.381Z,10.87
2022-10-01T20:05:53.316Z,10.89
2022-10-01T20:08:29.786Z,10.89
2022-10-01T20:11:16.667Z,10.88
2022-10-01T20:13:50.755Z,10.89
2022-10-01T20:16:44.413Z,10.89
2022-10-01T20:19:27.194Z,10.88
2022-10-01T20:21:54.595Z,10.87
2022-10-01T20:24:30.235Z,10.87
2022-10-01T20:27:20.382Z,10.87
2022-10-01T20:30:01.604Z,10.87
2022-10-01T20:32:39.656Z,10.87
2022-10-01T20:35:13.559Z,10.87
2022-10-01T20:38:13.077Z,10.86
2022-10-01T20:40:50.020Z,10.86
2022-10-01T20:43:21.860Z,10.87
2022-10-01T20:45:51.875Z,10.87
2022-10-01T20:48:28.565Z,10.87
2022-10-01T20:51:07.199Z,10.87
2022-10-01T20:53:45.879Z,10.87
2022-10-01T20:56:35.609Z,10.87
2022-10-01T20:59:28.205Z,10.86
2022-10-01T21:02:16.558Z,10.85
2022-10-01T21:05:14.436Z,10.85
2022-10-01T21:07:52.041Z,10.82
2022-10-01T21:10:45.498Z,10.80
2022-10-01T21:13:39.876Z,10.76
2022-10-01T21:16:25.900Z,10.72
2022-10-01T21:19:17.804Z,10.66
2022-10-01T21:22:20.310Z,10.60
2022-10-01T21:25:17.226Z,10.53
2022-10-01T21:28:00.895Z,10.49
2022-10-01T21:30:54.369Z,10.45
2022-10-01T21:33:34.325Z,10.42
2022-10-01T21:36:14.529Z,10.38
2022-10-01T21:38:46.176Z,10.35
2022-10-01T21:41:14.379Z,10.35
2022-10-01T21:43:45.319Z,10.33
2022-10-01T21:46:26.214Z,10.33
2022-10-01T21:49:18.119Z,10.32
2022-10-01T21:51:55.852Z,10.31
2022-10-01T21:54:41.497Z,10.31
2022-10-01T21:57:36.491Z,10.31
2022-10-01T22:00:21.557Z,10.34
2022-10-01T22:03:07.793Z,10.37
2022-10-01T22:05:54.390Z,10.42
2022-10-01T22:08:28.642Z,10.46
2022-10-01T22:11:00.049Z,10.50
2022-10-01T22:13:37.590Z,10.54
2022-10-01T22:16:11.218Z,10.58
2022-10-01T22:18:45.828Z,10.63
2022-10-01T22:21:18.216Z,10.67
2022-10-01T22:23:58.317Z,10.70
2022-10-01T22:26:28.488Z,10.74
2022-10-01T22:28:56.465Z,10.78
2022-10-01T22:31:29.054Z,10.81
2022-10-01T22:34:01.654Z,10.83
2022-10-01T22:36:41.659Z,10.85
2022-10-01T22:39:22.742Z,10.88
2022-10-01T22:41:56.335Z,10.90
2022-10-01T22:44:24.231Z,10.91
2022-10-01T22:47:04.429Z,10.94
2022-10-01T22:49:53.107Z,10.94
2022-10-01T22:52:55.603Z,10.94
2022-10-01T22:55:54.079Z,10.92
2022-10-01T22:58:25.624Z,10.90
2022-10-01T23:01:39.155Z,10.89
2022-10-01T23:04:23.421Z,10.87
2022-10-01T23:07:07.733Z,10.85
2022-10-01T23:14:19.906Z,10.89
2022-10-01T23:16:52.720Z,10.93
2022-10-01T23:19:33.866Z,10.98
2022-10-01T23:22:01.030Z,11.03
2022-10-01T23:24:45.660Z,11.08
2022-10-01T23:27:35.923Z,11.13
2022-10-01T23:30:05.665Z,11.18
2022-10-01T23:32:55.563Z,11.24
2022-10-01T23:35:30.498Z,11.31
2022-10-01T23:38:10.201Z,11.36
2022-10-01T23:40:44.184Z,11.43
2022-10-01T23:43:40.012Z,11.48
2022-10-01T23:46:31.472Z,11.54
2022-10-01T23:49:04.373Z,11.60
2022-10-01T23:51:45.034Z,11.65
2022-10-01T23:54:52.551Z,11.70
2022-10-01T23:57:36.995Z,11.75
